Terminal Aerodrome Forecast
Issued by NWS Duluth, MN

Home | Current Version | Previous Version | Text Only | Print | Product List | Glossary On
Versions: 1 2 3 4 5 6 7 8 9 10 11 12 13 14 15 16 17 18 19 20 21 22 23 24 25 26 27 28 29 30 31 32
008
FTUS43 KDLH 160801 AAB
TAFDLH
TAF AMD
KDLH 160801Z 1608/1706 25008KT 4SM BR SKC
     FM161000 24009KT 6SM BR SCT007
      TEMPO 1611/1615 4SM BR SCT005
     FM161800 23007KT P6SM BKN200
     FM170400 VRB03KT 6SM BR SCT200=

USA.gov is the U.S. government's official web portal to all federal, state and local government web resources and services.